sensor_id;sensor_type;location;lat;lon;timestamp;pressure;altitude;pressure_sealevel;temperature;humidity
19736;BME280;32064;49.310;8.646;2023-12-28T00:01:15;100621.41;;;10.60;64.41
19736;BME280;32064;49.310;8.646;2023-12-28T00:03:41;100620.78;;;10.56;64.20
19736;BME280;32064;49.310;8.646;2023-12-28T00:06:06;100618.25;;;10.54;62.90
19736;BME280;32064;49.310;8.646;2023-12-28T00:08:32;100613.28;;;10.50;63.67
19736;BME280;32064;49.310;8.646;2023-12-28T00:10:58;100610.44;;;10.40;63.46
19736;BME280;32064;49.310;8.646;2023-12-28T00:13:23;100600.53;;;10.31;63.57
19736;BME280;32064;49.310;8.646;2023-12-28T00:15:48;100588.41;;;10.28;63.98
19736;BME280;32064;49.310;8.646;2023-12-28T00:18:14;100600.34;;;10.20;64.21
19736;BME280;32064;49.310;8.646;2023-12-28T00:20:39;100603.19;;;10.17;63.26
19736;BME280;32064;49.310;8.646;2023-12-28T00:23:04;100608.53;;;10.15;63.37
19736;BME280;32064;49.310;8.646;2023-12-28T00:25:31;100615.28;;;10.19;64.13
19736;BME280;32064;49.310;8.646;2023-12-28T00:27:57;100620.44;;;10.21;63.11
19736;BME280;32064;49.310;8.646;2023-12-28T00:30:22;100626.53;;;10.21;64.85
19736;BME280;32064;49.310;8.646;2023-12-28T00:32:48;100625.13;;;10.16;64.94
19736;BME280;32064;49.310;8.646;2023-12-28T00:35:13;100617.16;;;10.17;64.20
19736;BME280;32064;49.310;8.646;2023-12-28T00:37:39;100620.44;;;10.21;64.61
19736;BME280;32064;49.310;8.646;2023-12-28T00:40:05;100622.97;;;10.22;64.44
19736;BME280;32064;49.310;8.646;2023-12-28T00:42:30;100629.28;;;10.20;62.79
19736;BME280;32064;49.310;8.646;2023-12-28T00:44:56;100631.16;;;10.18;63.33
19736;BME280;32064;49.310;8.646;2023-12-28T00:47:21;100633.13;;;10.14;63.61
19736;BME280;32064;49.310;8.646;2023-12-28T00:49:46;100621.31;;;10.07;62.83
19736;BME280;32064;49.310;8.646;2023-12-28T00:52:12;100614.28;;;10.07;63.09
19736;BME280;32064;49.310;8.646;2023-12-28T00:54:37;100622.28;;;10.06;63.33
19736;BME280;32064;49.310;8.646;2023-12-28T00:57:03;100620.75;;;10.02;63.59
19736;BME280;32064;49.310;8.646;2023-12-28T00:59:29;100616.75;;;9.96;63.99
19736;BME280;32064;49.310;8.646;2023-12-28T01:01:56;100616.09;;;9.93;64.15
19736;BME280;32064;49.310;8.646;2023-12-28T01:04:21;100609.06;;;9.93;63.31
19736;BME280;32064;49.310;8.646;2023-12-28T01:06:49;100609.47;;;9.87;64.27
19736;BME280;32064;49.310;8.646;2023-12-28T01:09:15;100613.69;;;9.89;64.57
19736;BME280;32064;49.310;8.646;2023-12-28T01:11:41;100605.72;;;9.91;63.93
19736;BME280;32064;49.310;8.646;2023-12-28T01:14:06;100600.13;;;9.96;63.65
19736;BME280;32064;49.310;8.646;2023-12-28T01:16:32;100603.50;;;9.98;63.83
19736;BME280;32064;49.310;8.646;2023-12-28T01:18:57;100602.38;;;10.02;64.06
19736;BME280;32064;49.310;8.646;2023-12-28T01:21:23;100605.75;;;10.04;62.89
19736;BME280;32064;49.310;8.646;2023-12-28T01:23:50;100609.97;;;10.06;63.61
19736;BME280;32064;49.310;8.646;2023-12-28T01:26:16;100613.44;;;10.07;63.86
19736;BME280;32064;49.310;8.646;2023-12-28T01:28:42;100625.84;;;10.05;64.37
19736;BME280;32064;49.310;8.646;2023-12-28T01:31:08;100620.28;;;10.09;63.15
19736;BME280;32064;49.310;8.646;2023-12-28T01:33:33;100623.47;;;10.15;63.74
19736;BME280;32064;49.310;8.646;2023-12-28T01:36:01;100624.22;;;10.17;62.90
19736;BME280;32064;49.310;8.646;2023-12-28T01:38:26;100635.44;;;10.19;62.51
19736;BME280;32064;49.310;8.646;2023-12-28T01:40:52;100639.22;;;10.15;63.04
19736;BME280;32064;49.310;8.646;2023-12-28T01:43:18;100652.09;;;10.19;63.57
19736;BME280;32064;49.310;8.646;2023-12-28T01:45:43;100652.25;;;10.16;63.03
19736;BME280;32064;49.310;8.646;2023-12-28T01:48:09;100649.56;;;10.18;63.10
19736;BME280;32064;49.310;8.646;2023-12-28T01:50:36;100641.56;;;10.19;62.58
19736;BME280;32064;49.310;8.646;2023-12-28T01:53:02;100643.53;;;10.16;62.37
19736;BME280;32064;49.310;8.646;2023-12-28T01:55:29;100652.25;;;10.16;62.15
19736;BME280;32064;49.310;8.646;2023-12-28T01:57:56;100639.31;;;10.13;62.62
19736;BME280;32064;49.310;8.646;2023-12-28T02:00:22;100638.78;;;10.08;63.14
19736;BME280;32064;49.310;8.646;2023-12-28T02:02:48;100639.63;;;10.08;64.05
19736;BME280;32064;49.310;8.646;2023-12-28T02:05:14;100653.22;;;10.15;63.95
19736;BME280;32064;49.310;8.646;2023-12-28T02:07:40;100651.44;;;10.16;63.96
19736;BME280;32064;49.310;8.646;2023-12-28T02:10:06;100652.81;;;10.21;62.80
19736;BME280;32064;49.310;8.646;2023-12-28T02:12:32;100641.94;;;10.27;62.85
19736;BME280;32064;49.310;8.646;2023-12-28T02:14:58;100654.03;;;10.30;63.12
19736;BME280;32064;49.310;8.646;2023-12-28T02:17:32;100654.59;;;10.35;63.50
19736;BME280;32064;49.310;8.646;2023-12-28T02:19:59;100645.66;;;10.38;64.19
19736;BME280;32064;49.310;8.646;2023-12-28T02:22:26;100649.97;;;10.39;63.10
19736;BME280;32064;49.310;8.646;2023-12-28T02:25:04;100658.41;;;10.44;63.44
19736;BME280;32064;49.310;8.646;2023-12-28T02:27:31;100661.16;;;10.55;64.49
19736;BME280;32064;49.310;8.646;2023-12-28T02:29:57;100661.72;;;10.60;64.33
19736;BME280;32064;49.310;8.646;2023-12-28T02:32:33;100668.66;;;10.61;63.25
19736;BME280;32064;49.310;8.646;2023-12-28T02:35:08;100662.16;;;10.67;63.45
19736;BME280;32064;49.310;8.646;2023-12-28T02:37:35;100666.16;;;10.72;63.30
19736;BME280;32064;49.310;8.646;2023-12-28T02:40:02;100664.81;;;10.79;63.59
19736;BME280;32064;49.310;8.646;2023-12-28T02:42:28;100655.88;;;10.82;64.78
19736;BME280;32064;49.310;8.646;2023-12-28T02:44:54;100660.81;;;10.87;63.21
19736;BME280;32064;49.310;8.646;2023-12-28T02:47:19;100661.47;;;10.90;63.28
19736;BME280;32064;49.310;8.646;2023-12-28T02:49:44;100662.72;;;10.97;62.16
19736;BME280;32064;49.310;8.646;2023-12-28T02:52:10;100657.59;;;10.96;63.25
19736;BME280;32064;49.310;8.646;2023-12-28T02:54:35;100659.06;;;11.00;61.72
19736;BME280;32064;49.310;8.646;2023-12-28T02:57:00;100661.59;;;11.01;62.07
19736;BME280;32064;49.310;8.646;2023-12-28T02:59:26;100659.69;;;11.04;63.21
19736;BME280;32064;49.310;8.646;2023-12-28T03:01:51;100657.69;;;11.07;62.47
19736;BME280;32064;49.310;8.646;2023-12-28T03:04:16;100653.38;;;11.06;62.48
19736;BME280;32064;49.310;8.646;2023-12-28T03:06:42;100661.91;;;11.10;61.31
19736;BME280;32064;49.310;8.646;2023-12-28T03:09:07;100661.72;;;11.13;62.27
19736;BME280;32064;49.310;8.646;2023-12-28T03:11:32;100661.91;;;11.10;61.76
19736;BME280;32064;49.310;8.646;2023-12-28T03:13:58;100666.00;;;11.14;61.02
19736;BME280;32064;49.310;8.646;2023-12-28T03:16:23;100664.75;;;11.19;63.25
19736;BME280;32064;49.310;8.646;2023-12-28T03:18:48;100654.84;;;11.23;61.45
19736;BME280;32064;49.310;8.646;2023-12-28T03:21:14;100666.75;;;11.29;61.34
19736;BME280;32064;49.310;8.646;2023-12-28T03:23:39;100670.00;;;11.32;62.95
19736;BME280;32064;49.310;8.646;2023-12-28T03:26:04;100670.00;;;11.32;60.68
19736;BME280;32064;49.310;8.646;2023-12-28T03:28:30;100674.44;;;11.32;62.06
19736;BME280;32064;49.310;8.646;2023-12-28T03:30:55;100673.72;;;11.30;61.35
19736;BME280;32064;49.310;8.646;2023-12-28T03:33:20;100664.75;;;11.32;60.92
19736;BME280;32064;49.310;8.646;2023-12-28T03:35:46;100661.69;;;11.38;61.35
19736;BME280;32064;49.310;8.646;2023-12-28T03:38:11;100665.78;;;11.42;61.08
19736;BME280;32064;49.310;8.646;2023-12-28T03:40:36;100667.59;;;11.42;61.71
19736;BME280;32064;49.310;8.646;2023-12-28T03:43:02;100664.66;;;11.46;61.15
19736;BME280;32064;49.310;8.646;2023-12-28T03:45:27;100658.94;;;11.53;61.24
19736;BME280;32064;49.310;8.646;2023-12-28T03:47:52;100652.63;;;11.55;61.21
19736;BME280;32064;49.310;8.646;2023-12-28T03:50:21;100651.66;;;11.56;61.13
19736;BME280;32064;49.310;8.646;2023-12-28T03:52:46;100652.41;;;11.58;62.62
19736;BME280;32064;49.310;8.646;2023-12-28T03:55:11;100655.75;;;11.60;62.59
19736;BME280;32064;49.310;8.646;2023-12-28T03:57:37;100649.13;;;11.67;60.57
19736;BME280;32064;49.310;8.646;2023-12-28T04:00:03;100651.44;;;11.72;61.57
19736;BME280;32064;49.310;8.646;2023-12-28T04:02:28;100651.31;;;11.74;61.57
19736;BME280;32064;49.310;8.646;2023-12-28T04:04:56;100661.31;;;11.81;62.09
19736;BME280;32064;49.310;8.646;2023-12-28T04:07:23;100655.72;;;11.86;60.56
19736;BME280;32064;49.310;8.646;2023-12-28T04:09:49;100650.16;;;11.90;60.39
19736;BME280;32064;49.310;8.646;2023-12-28T04:12:14;100651.63;;;11.95;61.56
19736;BME280;32064;49.310;8.646;2023-12-28T04:14:39;100634.84;;;11.96;61.26
19736;BME280;32064;49.310;8.646;2023-12-28T04:17:05;100638.00;;;12.01;60.85
19736;BME280;32064;49.310;8.646;2023-12-28T04:19:30;100649.16;;;12.04;60.41
19736;BME280;32064;49.310;8.646;2023-12-28T04:21:56;100656.00;;;12.07;62.34
19736;BME280;32064;49.310;8.646;2023-12-28T04:24:21;100650.19;;;12.15;62.12
19736;BME280;32064;49.310;8.646;2023-12-28T04:26:46;100656.22;;;12.04;61.90
19736;BME280;32064;49.310;8.646;2023-12-28T04:29:12;100661.06;;;12.10;63.25
19736;BME280;32064;49.310;8.646;2023-12-28T04:31:40;100673.50;;;12.08;63.79
19736;BME280;32064;49.310;8.646;2023-12-28T04:34:07;100675.91;;;12.11;63.64
19736;BME280;32064;49.310;8.646;2023-12-28T04:36:32;100674.31;;;12.21;62.63
19736;BME280;32064;49.310;8.646;2023-12-28T04:38:57;100668.22;;;12.08;62.78
19736;BME280;32064;49.310;8.646;2023-12-28T04:41:23;100662.78;;;12.22;62.60
19736;BME280;32064;49.310;8.646;2023-12-28T04:43:48;100668.59;;;12.27;63.45
19736;BME280;32064;49.310;8.646;2023-12-28T04:46:13;100682.91;;;12.36;61.88
19736;BME280;32064;49.310;8.646;2023-12-28T04:48:39;100691.78;;;12.35;61.96
19736;BME280;32064;49.310;8.646;2023-12-28T04:51:04;100704.91;;;12.48;63.23
19736;BME280;32064;49.310;8.646;2023-12-28T04:53:30;100704.91;;;12.48;62.89
19736;BME280;32064;49.310;8.646;2023-12-28T04:55:56;100714.16;;;12.53;63.15
19736;BME280;32064;49.310;8.646;2023-12-28T04:58:21;100709.72;;;12.54;64.52
19736;BME280;32064;49.310;8.646;2023-12-28T05:00:46;100712.59;;;12.51;65.74
19736;BME280;32064;49.310;8.646;2023-12-28T05:03:11;100722.38;;;12.38;66.55
19736;BME280;32064;49.310;8.646;2023-12-28T05:05:37;100712.50;;;12.52;66.71
19736;BME280;32064;49.310;8.646;2023-12-28T05:08:03;100718.78;;;12.63;65.58
19736;BME280;32064;49.310;8.646;2023-12-28T05:10:28;100706.66;;;12.60;67.24
19736;BME280;32064;49.310;8.646;2023-12-28T05:12:54;100702.72;;;12.66;66.45
19736;BME280;32064;49.310;8.646;2023-12-28T05:15:19;100712.53;;;12.64;67.30
19736;BME280;32064;49.310;8.646;2023-12-28T05:17:45;100724.69;;;12.66;66.57
19736;BME280;32064;49.310;8.646;2023-12-28T05:20:10;100726.34;;;12.67;66.66
19736;BME280;32064;49.310;8.646;2023-12-28T05:22:36;100736.19;;;12.65;66.88
19736;BME280;32064;49.310;8.646;2023-12-28T05:25:01;100739.56;;;12.67;66.26
19736;BME280;32064;49.310;8.646;2023-12-28T05:27:26;100741.97;;;12.70;65.95
19736;BME280;32064;49.310;8.646;2023-12-28T05:29:52;100735.53;;;12.74;67.30
19736;BME280;32064;49.310;8.646;2023-12-28T05:32:17;100733.72;;;12.75;67.13
19736;BME280;32064;49.310;8.646;2023-12-28T05:34:43;100731.06;;;12.75;66.37
19736;BME280;32064;49.310;8.646;2023-12-28T05:37:08;100729.72;;;12.69;66.06
19736;BME280;32064;49.310;8.646;2023-12-28T05:39:33;100730.09;;;12.76;66.90
19736;BME280;32064;49.310;8.646;2023-12-28T05:41:59;100740.13;;;12.84;66.00
19736;BME280;32064;49.310;8.646;2023-12-28T05:44:24;100734.72;;;12.85;67.54
19736;BME280;32064;49.310;8.646;2023-12-28T05:46:49;100739.66;;;12.90;67.01
19736;BME280;32064;49.310;8.646;2023-12-28T05:49:15;100734.50;;;12.88;66.92
19736;BME280;32064;49.310;8.646;2023-12-28T05:51:40;100743.13;;;12.90;66.42
19736;BME280;32064;49.310;8.646;2023-12-28T05:54:07;100748.41;;;12.90;67.91
19736;BME280;32064;49.310;8.646;2023-12-28T05:56:32;100743.88;;;12.92;67.52
19736;BME280;32064;49.310;8.646;2023-12-28T05:58:58;100733.19;;;12.94;67.34
19736;BME280;32064;49.310;8.646;2023-12-28T06:01:24;100744.47;;;12.96;67.24
19736;BME280;32064;49.310;8.646;2023-12-28T06:03:49;100744.00;;;13.02;66.83
19736;BME280;32064;49.310;8.646;2023-12-28T06:06:15;100752.66;;;13.04;66.85
19736;BME280;32064;49.310;8.646;2023-12-28T06:08:41;100752.34;;;13.09;66.76
19736;BME280;32064;49.310;8.646;2023-12-28T06:11:06;100760.88;;;13.12;67.26
19736;BME280;32064;49.310;8.646;2023-12-28T06:13:31;100760.88;;;13.12;68.11
19736;BME280;32064;49.310;8.646;2023-12-28T06:15:57;100766.88;;;13.14;67.92
19736;BME280;32064;49.310;8.646;2023-12-28T06:18:22;100760.25;;;13.09;67.92
19736;BME280;32064;49.310;8.646;2023-12-28T06:20:47;100749.19;;;13.03;68.65
19736;BME280;32064;49.310;8.646;2023-12-28T06:23:13;100750.50;;;12.98;68.10
19736;BME280;32064;49.310;8.646;2023-12-28T06:25:38;100754.81;;;12.99;68.60
19736;BME280;32064;49.310;8.646;2023-12-28T06:28:04;100762.59;;;12.89;69.42
19736;BME280;32064;49.310;8.646;2023-12-28T06:30:29;100759.47;;;12.95;68.85
19736;BME280;32064;49.310;8.646;2023-12-28T06:32:55;100771.13;;;12.93;68.30
19736;BME280;32064;49.310;8.646;2023-12-28T06:35:20;100780.50;;;12.97;68.17
19736;BME280;32064;49.310;8.646;2023-12-28T06:37:45;100786.03;;;12.94;70.08
19736;BME280;32064;49.310;8.646;2023-12-28T06:40:11;100770.56;;;13.00;69.53
19736;BME280;32064;49.310;8.646;2023-12-28T06:42:37;100780.06;;;13.03;68.46
19736;BME280;32064;49.310;8.646;2023-12-28T06:45:02;100784.97;;;13.08;68.82
19736;BME280;32064;49.310;8.646;2023-12-28T06:47:28;100779.59;;;13.09;69.51
19736;BME280;32064;49.310;8.646;2023-12-28T06:49:53;100773.47;;;13.09;69.69
19736;BME280;32064;49.310;8.646;2023-12-28T06:52:18;100784.41;;;13.15;69.67
19736;BME280;32064;49.310;8.646;2023-12-28T06:54:44;100777.44;;;13.14;70.06
19736;BME280;32064;49.310;8.646;2023-12-28T06:57:09;100772.03;;;13.16;69.51
19736;BME280;32064;49.310;8.646;2023-12-28T06:59:34;100773.84;;;13.15;69.91
19736;BME280;32064;49.310;8.646;2023-12-28T07:02:00;100772.28;;;13.13;70.43
19736;BME280;32064;49.310;8.646;2023-12-28T07:04:25;100773.59;;;13.18;70.27
19736;BME280;32064;49.310;8.646;2023-12-28T07:06:54;100773.59;;;13.18;70.11
19736;BME280;32064;49.310;8.646;2023-12-28T07:09:20;100772.78;;;13.18;70.44
19736;BME280;32064;49.310;8.646;2023-12-28T07:11:45;100781.66;;;13.17;69.83
19736;BME280;32064;49.310;8.646;2023-12-28T07:14:11;100761.09;;;13.09;70.59
19736;BME280;32064;49.310;8.646;2023-12-28T07:16:36;100771.44;;;13.12;70.79
19736;BME280;32064;49.310;8.646;2023-12-28T07:19:01;100763.22;;;13.04;71.32
19736;BME280;32064;49.310;8.646;2023-12-28T07:21:27;100771.66;;;13.09;71.71
19736;BME280;32064;49.310;8.646;2023-12-28T07:23:52;100771.91;;;13.06;70.89
19736;BME280;32064;49.310;8.646;2023-12-28T07:26:17;100769.84;;;13.10;71.23
19736;BME280;32064;49.310;8.646;2023-12-28T07:28:43;100777.69;;;13.11;71.65
19736;BME280;32064;49.310;8.646;2023-12-28T07:31:10;100786.72;;;13.20;71.07
19736;BME280;32064;49.310;8.646;2023-12-28T07:33:35;100787.22;;;13.25;71.20
19736;BME280;32064;49.310;8.646;2023-12-28T07:36:01;100792.16;;;13.30;70.94
19736;BME280;32064;49.310;8.646;2023-12-28T07:38:28;100798.84;;;13.22;72.03
19736;BME280;32064;49.310;8.646;2023-12-28T07:40:54;100792.31;;;13.28;71.14
19736;BME280;32064;49.310;8.646;2023-12-28T07:43:19;100803.25;;;13.35;71.34
19736;BME280;32064;49.310;8.646;2023-12-28T07:45:44;100812.63;;;13.39;71.51
19736;BME280;32064;49.310;8.646;2023-12-28T07:48:10;100816.00;;;13.41;71.50
19736;BME280;32064;49.310;8.646;2023-12-28T07:50:35;100810.09;;;13.37;71.84
19736;BME280;32064;49.310;8.646;2023-12-28T07:53:00;100803.16;;;13.36;71.14
19736;BME280;32064;49.310;8.646;2023-12-28T07:55:26;100802.66;;;13.31;71.83
19736;BME280;32064;49.310;8.646;2023-12-28T07:57:51;100798.19;;;13.32;71.98
19736;BME280;32064;49.310;8.646;2023-12-28T08:00:17;100802.75;;;13.30;72.25
19736;BME280;32064;49.310;8.646;2023-12-28T08:02:42;100805.63;;;13.27;71.95
19736;BME280;32064;49.310;8.646;2023-12-28T08:05:08;100813.75;;;13.23;71.63
19736;BME280;32064;49.310;8.646;2023-12-28T08:07:34;100814.38;;;13.27;71.64
19736;BME280;32064;49.310;8.646;2023-12-28T08:10:00;100813.91;;;13.33;72.35
19736;BME280;32064;49.310;8.646;2023-12-28T08:12:25;100810.09;;;13.37;71.90
19736;BME280;32064;49.310;8.646;2023-12-28T08:14:53;100812.75;;;13.37;72.38
19736;BME280;32064;49.310;8.646;2023-12-28T08:17:19;100808.53;;;13.35;72.11
19736;BME280;32064;49.310;8.646;2023-12-28T08:19:44;100816.22;;;13.38;72.22
19736;BME280;32064;49.310;8.646;2023-12-28T08:22:10;100817.53;;;13.32;73.43
19736;BME280;32064;49.310;8.646;2023-12-28T08:24:35;100811.91;;;13.37;73.09
19736;BME280;32064;49.310;8.646;2023-12-28T08:27:01;100812.41;;;13.42;72.10
19736;BME280;32064;49.310;8.646;2023-12-28T08:29:28;100810.47;;;13.44;72.29
19736;BME280;32064;49.310;8.646;2023-12-28T08:31:53;100815.38;;;13.37;73.68
19736;BME280;32064;49.310;8.646;2023-12-28T08:34:20;100823.09;;;13.40;72.34
19736;BME280;32064;49.310;8.646;2023-12-28T08:36:46;100818.41;;;13.44;72.87
19736;BME280;32064;49.310;8.646;2023-12-28T08:39:11;100825.25;;;13.46;72.91
19736;BME280;32064;49.310;8.646;2023-12-28T08:41:36;100819.38;;;13.43;73.24
19736;BME280;32064;49.310;8.646;2023-12-28T08:44:02;100821.03;;;13.44;73.45
19736;BME280;32064;49.310;8.646;2023-12-28T08:46:27;100816.22;;;13.38;72.60
19736;BME280;32064;49.310;8.646;2023-12-28T08:48:54;100813.22;;;13.31;72.97
19736;BME280;32064;49.310;8.646;2023-12-28T08:51:19;100812.97;;;13.34;72.66
19736;BME280;32064;49.310;8.646;2023-12-28T08:53:46;100816.19;;;13.27;72.91
19736;BME280;32064;49.310;8.646;2023-12-28T08:56:20;100827.34;;;13.30;72.39
19736;BME280;32064;49.310;8.646;2023-12-28T08:58:47;100817.91;;;13.28;72.76
19736;BME280;32064;49.310;8.646;2023-12-28T09:01:16;100825.81;;;13.28;73.46
19736;BME280;32064;49.310;8.646;2023-12-28T09:03:43;100830.63;;;13.34;73.34
19736;BME280;32064;49.310;8.646;2023-12-28T09:06:08;100830.22;;;13.27;73.00
19736;BME280;32064;49.310;8.646;2023-12-28T09:08:34;100837.69;;;13.33;73.38
19736;BME280;32064;49.310;8.646;2023-12-28T09:11:00;100848.41;;;13.32;73.20
19736;BME280;32064;49.310;8.646;2023-12-28T09:13:25;100839.41;;;13.34;73.52
19736;BME280;32064;49.310;8.646;2023-12-28T09:15:51;100841.69;;;13.39;73.81
19736;BME280;32064;49.310;8.646;2023-12-28T09:18:16;100837.88;;;13.43;72.62
19736;BME280;32064;49.310;8.646;2023-12-28T09:20:41;100842.19;;;13.44;72.62
19736;BME280;32064;49.310;8.646;2023-12-28T09:23:07;100841.59;;;13.40;73.73
19736;BME280;32064;49.310;8.646;2023-12-28T09:25:34;100838.38;;;13.48;72.79
19736;BME280;32064;49.310;8.646;2023-12-28T09:27:59;100859.38;;;13.50;73.11
19736;BME280;32064;49.310;8.646;2023-12-28T09:30:25;100853.25;;;13.49;72.50
19736;BME280;32064;49.310;8.646;2023-12-28T09:32:50;100853.16;;;13.51;72.71
19736;BME280;32064;49.310;8.646;2023-12-28T09:35:15;100851.59;;;13.48;72.59
19736;BME280;32064;49.310;8.646;2023-12-28T09:37:41;100852.75;;;13.44;73.58
19736;BME280;32064;49.310;8.646;2023-12-28T09:40:07;100859.53;;;13.48;73.45
19736;BME280;32064;49.310;8.646;2023-12-28T09:42:40;100859.38;;;13.50;73.32
19736;BME280;32064;49.310;8.646;2023-12-28T09:45:09;100858.09;;;13.55;73.81
19736;BME280;32064;49.310;8.646;2023-12-28T09:47:35;100852.94;;;13.54;73.79
19736;BME280;32064;49.310;8.646;2023-12-28T09:50:00;100844.78;;;13.57;73.16
19736;BME280;32064;49.310;8.646;2023-12-28T09:52:26;100850.28;;;13.54;73.58
19736;BME280;32064;49.310;8.646;2023-12-28T09:54:51;100849.91;;;13.58;73.65
19736;BME280;32064;49.310;8.646;2023-12-28T09:57:17;100848.84;;;13.61;73.30
19736;BME280;32064;49.310;8.646;2023-12-28T09:59:44;100848.50;;;13.65;73.20
19736;BME280;32064;49.310;8.646;2023-12-28T10:02:10;100847.53;;;13.66;72.81
19736;BME280;32064;49.310;8.646;2023-12-28T10:04:36;100841.88;;;13.60;72.92
19736;BME280;32064;49.310;8.646;2023-12-28T10:07:02;100835.75;;;13.59;72.97
19736;BME280;32064;49.310;8.646;2023-12-28T10:09:32;100837.78;;;13.56;72.77
19736;BME280;32064;49.310;8.646;2023-12-28T10:11:58;100842.72;;;13.60;73.11
19736;BME280;32064;49.310;8.646;2023-12-28T10:14:23;100846.09;;;13.62;72.88
19736;BME280;32064;49.310;8.646;2023-12-28T10:16:49;100849.25;;;13.67;72.69
19736;BME280;32064;49.310;8.646;2023-12-28T10:19:14;100840.00;;;13.73;71.51
19736;BME280;32064;49.310;8.646;2023-12-28T10:21:40;100842.66;;;13.73;71.58
19736;BME280;32064;49.310;8.646;2023-12-28T10:24:05;100841.53;;;13.76;71.42
19736;BME280;32064;49.310;8.646;2023-12-28T10:26:31;100840.44;;;13.67;70.05
19736;BME280;32064;49.310;8.646;2023-12-28T10:29:00;100841.38;;;13.55;70.47
19736;BME280;32064;49.310;8.646;2023-12-28T10:31:28;100840.88;;;13.50;71.18
19736;BME280;32064;49.310;8.646;2023-12-28T10:33:57;100831.88;;;13.52;70.23
19736;BME280;32064;49.310;8.646;2023-12-28T10:36:24;100827.00;;;13.59;70.23
19736;BME280;32064;49.310;8.646;2023-12-28T10:38:51;100830.72;;;13.56;70.30
19736;BME280;32064;49.310;8.646;2023-12-28T10:41:18;100828.53;;;13.61;70.03
19736;BME280;32064;49.310;8.646;2023-12-28T10:44:01;100840.31;;;13.57;70.31
19736;BME280;32064;49.310;8.646;2023-12-28T10:46:31;100841.41;;;13.66;69.83
19736;BME280;32064;49.310;8.646;2023-12-28T10:49:05;100839.13;;;13.61;69.50
19736;BME280;32064;49.310;8.646;2023-12-28T10:51:34;100834.94;;;13.59;69.62
19736;BME280;32064;49.310;8.646;2023-12-28T10:54:15;100829.00;;;13.55;69.76
19736;BME280;32064;49.310;8.646;2023-12-28T10:56:46;100825.28;;;13.58;69.44
19736;BME280;32064;49.310;8.646;2023-12-28T11:02:16;100828.78;;;13.58;70.19
19736;BME280;32064;49.310;8.646;2023-12-28T11:04:50;100820.75;;;13.60;69.92
19736;BME280;32064;49.310;8.646;2023-12-28T11:07:18;100812.66;;;13.61;69.79
19736;BME280;32064;49.310;8.646;2023-12-28T11:09:44;100817.53;;;13.67;69.77
19736;BME280;32064;49.310;8.646;2023-12-28T11:12:10;100823.41;;;13.71;69.61
19736;BME280;32064;49.310;8.646;2023-12-28T11:14:39;100822.44;;;13.72;70.23
19736;BME280;32064;49.310;8.646;2023-12-28T11:17:05;100813.31;;;13.76;70.08
19736;BME280;32064;49.310;8.646;2023-12-28T11:19:31;100822.19;;;13.75;69.99
19736;BME280;32064;49.310;8.646;2023-12-28T11:21:58;100814.16;;;13.77;69.30
19736;BME280;32064;49.310;8.646;2023-12-28T11:24:27;100817.53;;;13.79;69.97
19736;BME280;32064;49.310;8.646;2023-12-28T11:26:53;100814.16;;;13.77;69.67
19736;BME280;32064;49.310;8.646;2023-12-28T11:29:23;100810.53;;;13.78;69.91
19736;BME280;32064;49.310;8.646;2023-12-28T11:31:57;100807.53;;;13.71;69.45
19736;BME280;32064;49.310;8.646;2023-12-28T11:34:28;100800.22;;;13.75;69.95
19736;BME280;32064;49.310;8.646;2023-12-28T11:36:55;100815.72;;;13.79;69.97
19736;BME280;32064;49.310;8.646;2023-12-28T11:39:35;100798.16;;;13.78;70.36
19736;BME280;32064;49.310;8.646;2023-12-28T11:42:07;100806.34;;;13.86;69.67
19736;BME280;32064;49.310;8.646;2023-12-28T11:44:41;100805.03;;;13.81;69.72
19736;BME280;32064;49.310;8.646;2023-12-28T11:47:24;100793.94;;;13.76;69.66
19736;BME280;32064;49.310;8.646;2023-12-28T11:49:50;100796.59;;;13.76;70.63
19736;BME280;32064;49.310;8.646;2023-12-28T11:52:27;100790.13;;;13.80;70.03
19736;BME280;32064;49.310;8.646;2023-12-28T11:54:53;100788.66;;;13.87;70.53
19736;BME280;32064;49.310;8.646;2023-12-28T11:57:19;100784.34;;;13.86;70.46
19736;BME280;32064;49.310;8.646;2023-12-28T11:59:44;100778.34;;;13.84;70.22
19736;BME280;32064;49.310;8.646;2023-12-28T12:02:10;100774.25;;;13.80;70.50
19736;BME280;32064;49.310;8.646;2023-12-28T12:04:36;100780.50;;;13.67;70.29
19736;BME280;32064;49.310;8.646;2023-12-28T12:07:03;100780.84;;;13.63;70.55
19736;BME280;32064;49.310;8.646;2023-12-28T12:09:29;100776.53;;;13.62;70.92
19736;BME280;32064;49.310;8.646;2023-12-28T12:11:57;100775.78;;;13.60;71.66
19736;BME280;32064;49.310;8.646;2023-12-28T12:14:23;100776.41;;;13.63;71.16
19736;BME280;32064;49.310;8.646;2023-12-28T12:16:49;100776.63;;;13.60;71.47
19736;BME280;32064;49.310;8.646;2023-12-28T12:19:16;100768.69;;;13.60;71.82
19736;BME280;32064;49.310;8.646;2023-12-28T12:21:42;100762.81;;;13.57;72.21
19736;BME280;32064;49.310;8.646;2023-12-28T12:24:07;100764.50;;;13.58;72.09
19736;BME280;32064;49.310;8.646;2023-12-28T12:26:32;100759.78;;;13.50;72.40
19736;BME280;32064;49.310;8.646;2023-12-28T12:29:01;100760.75;;;13.49;72.40
19736;BME280;32064;49.310;8.646;2023-12-28T12:31:27;100755.91;;;13.32;72.86
19736;BME280;32064;49.310;8.646;2023-12-28T12:33:53;100753.63;;;13.38;72.26
19736;BME280;32064;49.310;8.646;2023-12-28T12:36:19;100745.38;;;13.43;72.48
19736;BME280;32064;49.310;8.646;2023-12-28T12:38:47;100749.69;;;13.44;72.25
19736;BME280;32064;49.310;8.646;2023-12-28T12:41:16;100747.53;;;13.49;72.97
19736;BME280;32064;49.310;8.646;2023-12-28T12:43:41;100746.22;;;13.43;72.93
19736;BME280;32064;49.310;8.646;2023-12-28T12:46:07;100747.53;;;13.49;73.61
19736;BME280;32064;49.310;8.646;2023-12-28T12:48:32;100744.16;;;13.47;72.98